Pelzer, Indiana
Current Conditions -  °F | °C
As of 4:54 PM on Thursday 20 Nov 2014 (Local Time) from KEVV Reporting Station
Clear Clear  
Wind Chill: 33°   Ceiling: Unl
Heat Index: 33°   Visibility: 10mi
Dew Point: 17°   Wind: 3mph
Humidity: 52%   Direction: 270°W
Pressure: 30.25"   Gusts: NA
Location:  38.0544°N, 87.2562°W
Report Text: KEVV 202254Z 27003KT 10SM CLR 01/M08 A3025 RMK AO2 SLP248 T00061083
Loading
Personal Weather Stations






























Interactive Weather Map New forecast layout! Learn more

10-Day Weather Forecast

Advertisements
Track Severe Weather on mobile